Time;durP1;ratioP1;P1;durP2;ratioP2;P2;SDS_P1;SDS_P2;PMS_P1;PMS_P2;Temp;Humidity;BMP_temperature;BMP_pressure;BME280_temperature;BME280_humidity;BME280_pressure;Samples;Min_cycle;Max_cycle;Signal;HPM_P1;HPM_P2
2024/03/01 00:02:02;;;;;;;;;;;;;;;8.98;100.00;96161.93;106846;1300;22543;-88
2024/03/01 00:04:29;;;;;;;;;;;;;;;9.21;100.00;96157.43;106996;1300;22539;-88
2024/03/01 00:06:55;;;;;;;;;;;;;;;9.29;100.00;96159.68;106947;1298;22554;-88
2024/03/01 00:09:22;;;;;;;;;;;;;;;9.37;99.94;96160.14;106812;1292;22684;-88
2024/03/01 00:11:48;;;;;;;;;;;;;;;9.47;99.82;96158.48;106914;1300;22545;-88
2024/03/01 00:14:15;;;;;;;;;;;;;;;9.56;98.55;96151.68;106766;1301;22576;-88
2024/03/01 00:16:41;;;;;;;;;;;;;;;9.74;97.92;96149.98;106741;1298;22473;-88
2024/03/01 00:19:08;;;;;;;;;;;;;;;9.87;98.03;96146.75;107021;1300;22558;-88
2024/03/01 00:21:35;;;;;;;;;;;;;;;10.02;96.93;96143.77;106886;1291;22532;-87
2024/03/01 00:24:01;;;;;;;;;;;;;;;10.14;97.32;96143.20;106974;1296;22544;-87
2024/03/01 00:26:28;;;;;;;;;;;;;;;10.13;97.46;96139.48;106950;1298;22585;-88
2024/03/01 00:28:54;;;;;;;;;;;;;;;10.09;97.29;96143.28;107018;1300;22529;-88
2024/03/01 00:31:21;;;;;;;;;;;;;;;10.09;97.74;96143.31;106947;1296;23870;-88
2024/03/01 00:33:47;;;;;;;;;;;;;;;10.04;97.76;96140.13;106794;1301;22517;-88
2024/03/01 00:36:17;;;;;;;;;;;;;;;9.98;98.21;96138.20;107007;1293;22560;-88
2024/03/01 00:38:43;;;;;;;;;;;;;;;9.95;98.24;96129.76;106913;1294;22523;-88
2024/03/01 00:41:10;;;;;;;;;;;;;;;9.89;98.27;96125.52;106980;1292;22545;-88
2024/03/01 00:43:38;;;;;;;;;;;;;;;9.82;98.64;96123.92;106910;1298;22584;-87
2024/03/01 00:46:04;;;;;;;;;;;;;;;9.78;98.61;96118.90;106916;1292;22532;-89
2024/03/01 00:48:34;;;;;;;;;;;;;;;9.74;98.83;96115.85;106919;1295;22572;-87
2024/03/01 00:51:01;;;;;;;;;;;;;;;9.74;98.79;96116.23;107134;1293;24139;-88
2024/03/01 00:53:27;;;;;;;;;;;;;;;9.73;98.52;96114.11;107015;1300;22527;-88
2024/03/01 00:55:54;;;;;;;;;;;;;;;9.71;98.19;96106.67;107160;1300;22521;-88
2024/03/01 00:58:20;;;;;;;;;;;;;;;9.69;98.33;96107.30;107141;1300;22537;-87
2024/03/01 01:00:46;;;;;;;;;;;;;;;9.66;98.57;96103.84;107137;1300;22526;-88
2024/03/01 01:03:13;;;;;;;;;;;;;;;9.62;99.00;96102.40;107117;1292;22527;-88
2024/03/01 01:05:40;;;;;;;;;;;;;;;9.64;98.83;96100.58;107171;1289;22576;-88
2024/03/01 01:08:06;;;;;;;;;;;;;;;9.67;99.13;96102.49;106980;1292;24261;-88
2024/03/01 01:10:33;;;;;;;;;;;;;;;9.74;99.15;96105.95;107152;1300;22486;-88
2024/03/01 01:12:59;;;;;;;;;;;;;;;9.79;98.78;96103.19;107086;1300;22675;-88
2024/03/01 01:15:26;;;;;;;;;;;;;;;9.78;98.55;96101.38;106846;1298;22552;-88
2024/03/01 01:17:53;;;;;;;;;;;;;;;9.76;98.44;96097.50;106948;1296;22554;-88
2024/03/01 01:20:19;;;;;;;;;;;;;;;9.69;97.83;96091.45;106983;1294;23529;-88
2024/03/01 01:22:45;;;;;;;;;;;;;;;9.55;97.82;96089.05;106857;1300;22614;-87
2024/03/01 01:25:12;;;;;;;;;;;;;;;9.49;98.03;96083.73;106879;1294;22514;-88
2024/03/01 01:27:38;;;;;;;;;;;;;;;9.41;97.82;96084.91;106919;1293;24260;-87
2024/03/01 01:30:05;;;;;;;;;;;;;;;9.25;97.67;96079.58;106972;1295;22962;-88
2024/03/01 01:32:32;;;;;;;;;;;;;;;9.14;98.27;96084.65;107144;1300;23940;-88
2024/03/01 01:34:58;;;;;;;;;;;;;;;9.08;98.26;96081.20;106817;1294;22599;-88
2024/03/01 01:37:28;;;;;;;;;;;;;;;9.03;98.47;96077.41;106893;1293;24119;-88
2024/03/01 01:39:54;;;;;;;;;;;;;;;8.99;98.61;96069.63;107059;1295;22551;-88
2024/03/01 01:42:21;;;;;;;;;;;;;;;8.91;98.93;96065.67;106856;1294;23097;-87
2024/03/01 01:44:48;;;;;;;;;;;;;;;8.87;99.14;96062.91;106971;1294;22540;-87
2024/03/01 01:47:14;;;;;;;;;;;;;;;8.86;98.81;96061.23;106833;1292;23307;-88
2024/03/01 01:49:41;;;;;;;;;;;;;;;8.84;98.76;96052.71;106982;1294;22511;-88
2024/03/01 01:52:08;;;;;;;;;;;;;;;8.81;99.00;96051.85;106898;1295;22598;-88
2024/03/01 01:54:34;;;;;;;;;;;;;;;8.84;99.14;96054.40;106979;1298;22513;-88
2024/03/01 01:57:01;;;;;;;;;;;;;;;8.83;98.88;96048.84;106991;1300;22543;-88
2024/03/01 01:59:28;;;;;;;;;;;;;;;8.79;99.09;96046.08;107036;1300;22525;-88
2024/03/01 02:01:54;;;;;;;;;;;;;;;8.75;99.13;96041.94;106994;1300;22513;-88
2024/03/01 02:04:21;;;;;;;;;;;;;;;8.71;99.13;96037.75;106880;1294;22643;-87
2024/03/01 02:06:49;;;;;;;;;;;;;;;8.73;98.99;96029.31;106898;1294;22835;-88
2024/03/01 02:09:18;;;;;;;;;;;;;;;8.71;98.70;96022.61;106958;1300;22576;-88
2024/03/01 02:11:45;;;;;;;;;;;;;;;8.70;99.06;96023.78;106900;1300;23382;-88
2024/03/01 02:14:11;;;;;;;;;;;;;;;8.70;99.19;96025.46;106866;1297;25169;-87
2024/03/01 02:16:38;;;;;;;;;;;;;;;8.70;99.04;96026.05;107002;1300;25313;-88
2024/03/01 02:19:06;;;;;;;;;;;;;;;8.63;99.42;96023.86;106954;1294;22503;-88
2024/03/01 02:21:33;;;;;;;;;;;;;;;8.58;99.36;96020.55;106907;1298;25398;-87
2024/03/01 02:24:00;;;;;;;;;;;;;;;8.51;99.13;96021.85;106844;1301;22552;-88
2024/03/01 02:26:26;;;;;;;;;;;;;;;8.42;99.29;96015.96;107125;1294;22521;-88
2024/03/01 02:28:53;;;;;;;;;;;;;;;8.37;99.81;96010.09;106975;1300;22651;-87
2024/03/01 02:31:21;;;;;;;;;;;;;;;8.38;99.69;96005.20;107003;1300;24997;-88
2024/03/01 02:33:47;;;;;;;;;;;;;;;8.35;99.76;95995.02;107108;1300;22552;-88
2024/03/01 02:36:15;;;;;;;;;;;;;;;8.29;99.96;95988.31;106818;1297;22561;-87
2024/03/01 02:38:41;;;;;;;;;;;;;;;8.25;99.66;95985.62;106868;1295;25409;-88
2024/03/01 02:41:07;;;;;;;;;;;;;;;8.31;98.41;95983.22;106982;1301;22566;-88
2024/03/01 02:43:34;;;;;;;;;;;;;;;8.52;97.78;95978.88;106969;1300;22557;-88
2024/03/01 02:46:00;;;;;;;;;;;;;;;8.71;97.61;95974.46;107017;1301;25358;-87
2024/03/01 02:48:27;;;;;;;;;;;;;;;8.92;94.77;95972.70;107114;1298;22947;-88
2024/03/01 02:50:53;;;;;;;;;;;;;;;9.26;94.20;95977.88;107125;1300;25398;-88
2024/03/01 02:53:20;;;;;;;;;;;;;;;9.52;92.85;95977.61;106920;1294;22506;-88
2024/03/01 02:55:46;;;;;;;;;;;;;;;9.75;90.93;95968.73;107062;1301;22768;-88
2024/03/01 02:58:13;;;;;;;;;;;;;;;9.95;90.43;95956.97;106817;1297;22504;-87
2024/03/01 03:00:39;;;;;;;;;;;;;;;10.12;89.25;95954.83;107115;1295;22524;-87
2024/03/01 03:03:05;;;;;;;;;;;;;;;10.28;88.65;95954.73;106813;1297;25242;-88
2024/03/01 03:05:33;;;;;;;;;;;;;;;10.42;87.37;95953.09;106845;1301;22536;-88
2024/03/01 03:07:59;;;;;;;;;;;;;;;10.50;87.19;95957.73;106909;1298;22558;-89
2024/03/01 03:10:26;;;;;;;;;;;;;;;10.37;88.38;95954.73;106917;1300;22531;-88
2024/03/01 03:12:52;;;;;;;;;;;;;;;10.14;88.78;95962.67;107115;1300;22865;-88
2024/03/01 03:15:18;;;;;;;;;;;;;;;9.90;89.82;95974.02;106951;1292;23814;-88
2024/03/01 03:17:45;;;;;;;;;;;;;;;9.70;90.29;95983.14;106966;1300;22532;-88
2024/03/01 03:20:12;;;;;;;;;;;;;;;9.52;90.75;95990.03;106996;1300;22538;-87
2024/03/01 03:22:38;;;;;;;;;;;;;;;9.38;91.08;95987.41;106847;1292;22544;-88
2024/03/01 03:25:07;;;;;;;;;;;;;;;9.30;91.66;95986.98;106825;1296;22558;-88
2024/03/01 03:27:34;;;;;;;;;;;;;;;9.20;91.64;95983.83;106909;1296;24238;-88
2024/03/01 03:30:00;;;;;;;;;;;;;;;9.09;91.87;95977.59;106783;1300;23078;-88
2024/03/01 03:32:27;;;;;;;;;;;;;;;8.98;92.23;95978.77;106937;1300;22544;-88
2024/03/01 03:34:53;;;;;;;;;;;;;;;8.89;92.31;95979.39;107007;1297;22524;-88
2024/03/01 03:37:21;;;;;;;;;;;;;;;8.80;92.74;95973.73;106947;1292;22522;-87
2024/03/01 03:39:48;;;;;;;;;;;;;;;8.71;93.23;95970.67;106977;1300;22522;-88
2024/03/01 03:42:15;;;;;;;;;;;;;;;8.65;93.51;95976.91;106933;1292;22642;-88
2024/03/01 03:44:41;;;;;;;;;;;;;;;8.60;93.73;95967.46;106873;1294;25402;-88
2024/03/01 03:47:08;;;;;;;;;;;;;;;8.55;93.94;95962.70;106918;1299;24821;-88
2024/03/01 03:49:37;;;;;;;;;;;;;;;8.50;94.34;95969.53;106905;1300;22675;-88
2024/03/01 03:52:04;;;;;;;;;;;;;;;8.47;94.66;95972.41;106953;1295;23214;-87
2024/03/01 03:54:31;;;;;;;;;;;;;;;8.46;94.70;95978.11;106997;1294;22503;-88
2024/03/01 03:56:57;;;;;;;;;;;;;;;8.43;94.99;95980.45;107012;1300;22750;-88
2024/03/01 03:59:24;;;;;;;;;;;;;;;8.42;94.94;95984.15;106981;1297;22510;-88
2024/03/01 04:01:50;;;;;;;;;;;;;;;8.42;95.01;95984.23;106850;1300;22617;-88
2024/03/01 04:04:17;;;;;;;;;;;;;;;8.41;95.44;95984.97;107126;1300;24278;-88
2024/03/01 04:06:44;;;;;;;;;;;;;;;8.40;95.47;95983.33;106899;1299;22698;-88
2024/03/01 04:09:10;;;;;;;;;;;;;;;8.38;96.00;95976.85;106885;1300;22598;-88
2024/03/01 04:11:37;;;;;;;;;;;;;;;8.37;96.35;95972.50;106929;1300;22671;-88
2024/03/01 04:14:03;;;;;;;;;;;;;;;8.37;96.43;95968.27;106906;1301;22566;-87
2024/03/01 04:16:30;;;;;;;;;;;;;;;8.35;96.51;95967.73;106897;1294;22538;-88
2024/03/01 04:18:56;;;;;;;;;;;;;;;8.34;96.43;95968.06;106852;1301;22543;-88
2024/03/01 04:21:23;;;;;;;;;;;;;;;8.32;96.36;95966.03;106909;1279;22510;-88
2024/03/01 04:23:49;;;;;;;;;;;;;;;8.30;96.62;95967.08;106946;1298;22529;-87
2024/03/01 04:26:16;;;;;;;;;;;;;;;8.30;96.64;95965.77;107123;1300;22509;-88
2024/03/01 04:28:42;;;;;;;;;;;;;;;8.29;96.56;95969.64;107133;1293;22546;-87
2024/03/01 04:31:09;;;;;;;;;;;;;;;8.29;96.41;95970.02;107132;1300;22991;-88
2024/03/01 04:33:38;;;;;;;;;;;;;;;8.28;96.77;95971.24;106788;1300;22560;-88
2024/03/01 04:36:09;;;;;;;;;;;;;;;8.27;96.53;95971.71;106790;1292;22582;-88
2024/03/01 04:38:35;;;;;;;;;;;;;;;8.23;97.08;95965.92;107137;1300;22583;-88
2024/03/01 04:41:01;;;;;;;;;;;;;;;8.12;97.49;95969.31;106800;1300;23596;-88
2024/03/01 04:43:28;;;;;;;;;;;;;;;8.06;97.42;95969.38;106926;1295;22522;-88
2024/03/01 04:45:55;;;;;;;;;;;;;;;8.05;97.20;95971.23;106878;1298;22624;-88
2024/03/01 04:48:21;;;;;;;;;;;;;;;8.04;97.35;95962.38;106995;1297;23281;-88
2024/03/01 04:50:48;;;;;;;;;;;;;;;8.05;97.30;95967.12;107031;1295;22524;-87
2024/03/01 04:53:14;;;;;;;;;;;;;;;8.05;96.90;95968.96;107204;1300;22563;-88
2024/03/01 04:55:41;;;;;;;;;;;;;;;8.06;96.81;95965.63;106947;1294;22589;-88
2024/03/01 04:58:07;;;;;;;;;;;;;;;8.05;96.64;95964.79;106966;1295;22530;-88
2024/03/01 05:00:34;;;;;;;;;;;;;;;8.07;96.68;95968.07;106965;1300;24364;-87
2024/03/01 05:03:06;;;;;;;;;;;;;;;8.08;96.67;95967.45;106840;1292;22550;-88
2024/03/01 05:05:33;;;;;;;;;;;;;;;8.08;96.62;95968.41;108237;1295;22561;-88
2024/03/01 05:07:59;;;;;;;;;;;;;;;8.08;96.64;95975.49;108201;1292;22406;-88
2024/03/01 05:10:26;;;;;;;;;;;;;;;8.09;96.51;95980.33;108217;1300;22393;-89
2024/03/01 05:12:52;;;;;;;;;;;;;;;8.12;96.22;95983.83;108215;1292;22413;-87
2024/03/01 05:15:19;;;;;;;;;;;;;;;8.13;96.40;95985.77;108284;1295;22441;-89
2024/03/01 05:17:46;;;;;;;;;;;;;;;8.16;96.36;95980.13;108283;1292;22411;-88
2024/03/01 05:20:12;;;;;;;;;;;;;;;8.17;96.13;95979.12;108224;1295;22393;-88
2024/03/01 05:22:39;;;;;;;;;;;;;;;8.20;95.90;95983.64;108420;1292;22450;-88
2024/03/01 05:25:14;;;;;;;;;;;;;;;8.23;95.73;95986.35;108288;1294;22559;-88
2024/03/01 05:27:44;;;;;;;;;;;;;;;8.28;96.05;95984.98;107120;1292;22530;-87
2024/03/01 05:30:17;;;;;;;;;;;;;;;8.29;96.24;95986.39;107158;1289;22527;-88
2024/03/01 05:32:44;;;;;;;;;;;;;;;8.32;95.71;95985.99;106958;1296;23324;-88
2024/03/01 05:35:15;;;;;;;;;;;;;;;8.37;96.02;95993.88;106983;1292;22983;-88
2024/03/01 05:37:43;;;;;;;;;;;;;;;8.36;96.49;95993.33;107003;1300;22662;-88
2024/03/01 05:40:14;;;;;;;;;;;;;;;8.34;96.35;95999.78;106934;1294;22528;-88
2024/03/01 05:42:41;;;;;;;;;;;;;;;8.32;96.67;95998.80;106938;1295;22532;-87
2024/03/01 05:45:08;;;;;;;;;;;;;;;8.30;96.98;96000.38;107157;1300;22546;-88
2024/03/01 05:47:35;;;;;;;;;;;;;;;8.30;97.18;95998.88;107198;1299;23306;-88
2024/03/01 05:50:03;;;;;;;;;;;;;;;8.29;97.50;95995.71;106808;1298;22528;-87
2024/03/01 05:52:29;;;;;;;;;;;;;;;8.28;97.46;95989.60;106981;1300;22545;-88
2024/03/01 05:54:56;;;;;;;;;;;;;;;8.28;97.54;95986.11;106932;1300;22534;-87
2024/03/01 05:57:23;;;;;;;;;;;;;;;8.25;97.96;95981.28;107021;1298;22667;-88
2024/03/01 05:59:50;;;;;;;;;;;;;;;8.24;97.98;95978.55;106975;1300;22552;-87
2024/03/01 06:02:17;;;;;;;;;;;;;;;8.24;97.99;95978.55;106983;1300;24796;-87
2024/03/01 06:04:43;;;;;;;;;;;;;;;8.22;98.38;95974.44;107017;1300;25418;-86
2024/03/01 06:07:10;;;;;;;;;;;;;;;8.21;98.41;95967.77;107162;1300;23249;-87
2024/03/01 06:09:36;;;;;;;;;;;;;;;8.24;98.92;95967.84;106908;1295;25220;-88
2024/03/01 06:12:03;;;;;;;;;;;;;;;8.23;98.74;95970.30;107018;1283;23893;-88
2024/03/01 06:14:30;;;;;;;;;;;;;;;8.24;98.68;95968.53;107000;1300;24202;-88
2024/03/01 06:16:56;;;;;;;;;;;;;;;8.22;99.01;95972.13;107122;1300;22528;-88
2024/03/01 06:19:23;;;;;;;;;;;;;;;8.22;99.08;95966.14;106809;1297;22552;-88
2024/03/01 06:21:49;;;;;;;;;;;;;;;8.23;99.14;95964.20;107200;1292;22539;-88
2024/03/01 06:24:16;;;;;;;;;;;;;;;8.25;99.13;95964.95;106937;1298;22529;-88
2024/03/01 06:26:43;;;;;;;;;;;;;;;8.27;98.94;95968.00;106951;1294;22553;-88
2024/03/01 06:29:09;;;;;;;;;;;;;;;8.31;98.64;95973.38;106841;1297;22533;-88
2024/03/01 06:31:36;;;;;;;;;;;;;;;8.35;98.82;95968.80;107005;1292;22515;-88
2024/03/01 06:34:02;;;;;;;;;;;;;;;8.40;99.16;95968.75;106895;1297;22592;-87
2024/03/01 06:36:29;;;;;;;;;;;;;;;8.43;99.12;95969.45;106907;1298;22575;-88
2024/03/01 06:38:55;;;;;;;;;;;;;;;8.46;99.28;95973.05;107164;1292;22564;-88
2024/03/01 06:41:22;;;;;;;;;;;;;;;8.49;99.59;95967.77;107005;1300;22590;-88
2024/03/01 06:43:48;;;;;;;;;;;;;;;8.50;99.73;95964.70;107143;1298;24267;-87
2024/03/01 06:46:15;;;;;;;;;;;;;;;8.50;99.74;95966.35;106900;1291;24193;-88
2024/03/01 06:48:41;;;;;;;;;;;;;;;8.53;99.16;95961.20;106965;1292;23032;-88
2024/03/01 06:51:08;;;;;;;;;;;;;;;8.56;99.57;95963.90;106921;1298;22543;-87
2024/03/01 06:53:34;;;;;;;;;;;;;;;8.59;99.53;95961.86;106788;1298;22520;-87
2024/03/01 06:56:02;;;;;;;;;;;;;;;8.63;99.66;95960.70;107031;1291;22562;-88
2024/03/01 06:58:29;;;;;;;;;;;;;;;8.65;99.95;95965.60;107804;1298;22517;-88
2024/03/01 07:00:55;;;;;;;;;;;;;;;8.68;99.75;95964.47;106899;1301;22794;-87
2024/03/01 07:03:22;;;;;;;;;;;;;;;8.71;100.00;95954.54;106931;1299;25265;-88
2024/03/01 07:05:48;;;;;;;;;;;;;;;8.75;100.00;95945.33;106754;1295;24207;-88
2024/03/01 07:08:15;;;;;;;;;;;;;;;8.79;99.51;95941.29;107096;1279;24342;-88
2024/03/01 07:10:41;;;;;;;;;;;;;;;8.85;99.07;95937.38;106870;1292;22573;-87
2024/03/01 07:13:08;;;;;;;;;;;;;;;8.92;98.18;95941.29;106944;1300;22555;-87
2024/03/01 07:15:35;;;;;;;;;;;;;;;9.00;98.89;95946.73;106803;1300;23337;-88
2024/03/01 07:18:01;;;;;;;;;;;;;;;9.08;98.40;95942.77;107122;1292;22539;-87
2024/03/01 07:20:28;;;;;;;;;;;;;;;9.15;99.42;95938.27;107155;1297;22565;-88
2024/03/01 07:22:55;;;;;;;;;;;;;;;9.20;98.35;95939.88;107004;1283;23002;-87
2024/03/01 07:25:21;;;;;;;;;;;;;;;9.25;98.04;95948.30;106991;1301;22553;-87
2024/03/01 07:27:48;;;;;;;;;;;;;;;9.31;97.36;95943.83;107124;1300;23692;-87
2024/03/01 07:30:15;;;;;;;;;;;;;;;9.36;98.57;95941.98;107102;1294;25399;-87
2024/03/01 07:32:42;;;;;;;;;;;;;;;9.39;99.34;95939.23;106682;1300;23275;-87
2024/03/01 07:35:09;;;;;;;;;;;;;;;9.43;99.28;95938.91;106955;1300;23277;-87
2024/03/01 07:37:38;;;;;;;;;;;;;;;9.47;98.49;95937.73;106946;1300;22476;-88
2024/03/01 07:40:05;;;;;;;;;;;;;;;9.53;98.88;95941.35;107073;1292;23878;-87
2024/03/01 07:42:31;;;;;;;;;;;;;;;9.59;99.99;95940.34;106936;1298;22527;-87
2024/03/01 07:44:58;;;;;;;;;;;;;;;9.64;100.00;95926.42;106924;1300;22590;-87
2024/03/01 07:47:26;;;;;;;;;;;;;;;9.68;100.00;95928.04;107143;1299;24788;-87
2024/03/01 07:49:52;;;;;;;;;;;;;;;9.74;100.00;95930.31;107105;1297;23254;-87
2024/03/01 07:52:19;;;;;;;;;;;;;;;9.78;100.00;95927.30;106771;1300;22486;-88
2024/03/01 07:54:45;;;;;;;;;;;;;;;9.83;100.00;95935.16;106856;1301;22536;-87
2024/03/01 07:57:12;;;;;;;;;;;;;;;9.88;100.00;95938.34;106810;1296;22566;-87
2024/03/01 07:59:38;;;;;;;;;;;;;;;9.93;99.70;95943.19;107020;1301;22524;-87
2024/03/01 08:02:06;;;;;;;;;;;;;;;9.92;97.57;95942.02;106934;1284;22483;-88
2024/03/01 08:04:34;;;;;;;;;;;;;;;9.93;97.49;95940.71;107106;1300;22631;-87
2024/03/01 08:07:02;;;;;;;;;;;;;;;10.05;95.26;95940.42;106974;1299;22711;-88
2024/03/01 08:09:31;;;;;;;;;;;;;;;10.15;97.24;95937.11;107096;1301;22507;-88
2024/03/01 08:11:58;;;;;;;;;;;;;;;10.20;98.72;95938.70;107126;1295;25243;-88
2024/03/01 08:14:30;;;;;;;;;;;;;;;10.27;99.58;95932.98;106884;1297;22523;-87
2024/03/01 08:16:57;;;;;;;;;;;;;;;10.33;100.00;95925.95;106999;1297;23364;-88
2024/03/01 08:19:50;;;;;;;;;;;;;;;10.39;100.00;95918.75;107097;1298;22634;-88
2024/03/01 08:22:17;;;;;;;;;;;;;;;10.47;100.00;95914.80;107190;1295;22483;-88
2024/03/01 08:24:46;;;;;;;;;;;;;;;10.55;100.00;95916.71;107159;1300;22654;-88
2024/03/01 08:27:16;;;;;;;;;;;;;;;10.61;100.00;95909.20;107162;1300;22517;-88
2024/03/01 08:29:43;;;;;;;;;;;;;;;10.65;100.00;95911.80;106982;1295;22562;-88
2024/03/01 08:32:15;;;;;;;;;;;;;;;10.69;100.00;95919.13;107077;1301;22519;-88
2024/03/01 08:34:43;;;;;;;;;;;;;;;10.73;99.19;95920.59;107023;1300;22597;-88
2024/03/01 08:37:15;;;;;;;;;;;;;;;10.77;99.37;95914.78;107176;1295;22521;-88
2024/03/01 08:39:42;;;;;;;;;;;;;;;10.83;98.92;95921.43;107108;1300;25402;-88
2024/03/01 08:42:09;;;;;;;;;;;;;;;10.89;98.79;95916.46;107200;1300;22554;-87
2024/03/01 08:44:54;;;;;;;;;;;;;;;10.93;98.29;95914.17;106913;1300;25080;-88
2024/03/01 08:47:21;;;;;;;;;;;;;;;10.98;97.89;95915.81;107149;1294;22601;-88
2024/03/01 08:49:53;;;;;;;;;;;;;;;11.03;96.61;95915.86;107140;1294;22559;-88
2024/03/01 08:52:26;;;;;;;;;;;;;;;11.09;95.00;95920.14;107146;1300;22541;-88
2024/03/01 08:54:53;;;;;;;;;;;;;;;11.15;95.74;95921.14;107151;1295;22639;-88
2024/03/01 08:57:22;;;;;;;;;;;;;;;11.20;96.91;95917.51;106944;1300;22546;-88
2024/03/01 08:59:49;;;;;;;;;;;;;;;11.22;94.83;95919.52;106910;1294;24305;-88
2024/03/01 09:02:29;;;;;;;;;;;;;;;11.25;95.65;95914.22;107063;1295;22561;-88
2024/03/01 09:04:56;;;;;;;;;;;;;;;11.26;94.23;95909.82;106951;1288;22516;-88
2024/03/01 09:07:26;;;;;;;;;;;;;;;11.25;93.78;95912.13;106914;1300;22567;-89
2024/03/01 09:09:52;;;;;;;;;;;;;;;11.27;93.68;95914.38;106869;1299;22521;-88
2024/03/01 09:12:22;;;;;;;;;;;;;;;11.29;93.33;95917.27;106940;1300;22517;-88
2024/03/01 09:14:48;;;;;;;;;;;;;;;11.33;95.60;95918.58;107124;1300;22535;-88
2024/03/01 09:17:15;;;;;;;;;;;;;;;11.36;94.46;95911.05;107027;1294;23129;-88
2024/03/01 09:19:48;;;;;;;;;;;;;;;11.38;95.39;95910.27;106888;1300;164265;-88
2024/03/01 09:22:18;;;;;;;;;;;;;;;11.41;94.88;95907.48;107030;1298;22568;-87
2024/03/01 09:24:44;;;;;;;;;;;;;;;11.42;92.94;95918.77;106932;1300;22530;-88
2024/03/01 09:27:20;;;;;;;;;;;;;;;11.43;92.79;95919.61;106985;1294;25332;-87
2024/03/01 09:29:47;;;;;;;;;;;;;;;11.47;92.14;95921.45;106985;1300;25411;-88
2024/03/01 09:32:14;;;;;;;;;;;;;;;11.51;91.75;95923.41;106882;1292;22624;-88
2024/03/01 09:34:41;;;;;;;;;;;;;;;11.55;92.12;95923.86;106928;1294;25013;-87
2024/03/01 09:37:10;;;;;;;;;;;;;;;11.64;93.66;95922.58;106929;1292;25422;-88
2024/03/01 09:39:36;;;;;;;;;;;;;;;11.73;93.28;95923.16;107060;1291;24263;-88
2024/03/01 09:42:13;;;;;;;;;;;;;;;11.80;93.59;95913.16;106897;1296;24234;-88
2024/03/01 09:44:42;;;;;;;;;;;;;;;11.86;93.26;95913.65;107036;1294;22556;-88
2024/03/01 09:47:09;;;;;;;;;;;;;;;11.89;93.21;95910.74;106973;1300;22568;-88
2024/03/01 09:49:48;;;;;;;;;;;;;;;11.93;92.58;95910.38;106967;1294;22553;-88
2024/03/01 09:52:33;;;;;;;;;;;;;;;11.98;92.93;95903.27;107150;1298;22458;-88
2024/03/01 09:55:09;;;;;;;;;;;;;;;12.07;93.02;95901.91;106969;1301;24888;-88
2024/03/01 09:57:35;;;;;;;;;;;;;;;12.15;93.77;95912.55;107189;1295;22514;-88
2024/03/01 10:00:07;;;;;;;;;;;;;;;12.20;93.68;95910.30;106997;1300;22524;-87
2024/03/01 10:02:39;;;;;;;;;;;;;;;12.26;92.90;95912.10;106903;1299;22614;-88
2024/03/01 10:05:11;;;;;;;;;;;;;;;12.32;92.03;95916.89;108375;1300;22396;-89
2024/03/01 10:07:42;;;;;;;;;;;;;;;12.37;90.80;95916.16;108163;1294;22375;-89
2024/03/01 10:10:18;;;;;;;;;;;;;;;12.40;91.42;95916.77;108289;1300;22656;-89
2024/03/01 10:12:54;;;;;;;;;;;;;;;12.44;91.06;95911.80;108389;1292;22488;-89
2024/03/01 10:15:20;;;;;;;;;;;;;;;12.48;89.37;95914.28;108315;1298;22361;-89
2024/03/01 10:17:50;;;;;;;;;;;;;;;12.50;88.91;95910.06;108270;1295;23243;-89
2024/03/01 10:20:17;;;;;;;;;;;;;;;12.56;89.27;95906.09;108258;1298;23016;-89
2024/03/01 10:22:49;;;;;;;;;;;;;;;12.58;88.41;95902.92;108402;1293;22427;-89
2024/03/01 10:25:23;;;;;;;;;;;;;;;12.63;87.68;95905.09;108397;1294;22418;-89
2024/03/01 10:27:51;;;;;;;;;;;;;;;12.67;87.93;95904.77;108338;1299;22433;-89
2024/03/01 10:30:22;;;;;;;;;;;;;;;12.72;87.14;95908.34;108247;1294;22415;-89
2024/03/01 10:33:24;;;;;;;;;;;;;;;12.75;86.73;95910.39;108286;1294;22424;-89
2024/03/01 10:36:00;;;;;;;;;;;;;;;12.80;87.64;95906.80;106678;1300;22552;-88
2024/03/01 10:38:42;;;;;;;;;;;;;;;12.83;87.68;95901.29;106988;1300;24817;-88
2024/03/01 10:41:14;;;;;;;;;;;;;;;12.86;87.58;95902.05;107082;1292;22659;-88
2024/03/01 10:43:46;;;;;;;;;;;;;;;12.87;87.48;95899.80;107005;1298;22564;-88
2024/03/01 10:46:15;;;;;;;;;;;;;;;12.88;87.97;95898.80;107138;1300;22538;-88
2024/03/01 10:48:55;;;;;;;;;;;;;;;12.90;88.41;95896.06;107023;1290;22505;-88
2024/03/01 10:51:22;;;;;;;;;;;;;;;12.92;88.33;95904.20;106969;1295;22524;-89
2024/03/01 10:53:49;;;;;;;;;;;;;;;12.91;87.55;95897.70;106820;1299;22738;-87
2024/03/01 10:56:16;;;;;;;;;;;;;;;12.91;87.80;95899.55;107009;1300;22517;-88
2024/03/01 10:58:46;;;;;;;;;;;;;;;12.91;88.21;95893.56;106991;1300;22550;-85
2024/03/01 11:01:33;;;;;;;;;;;;;;;12.92;88.43;95892.36;106979;1300;25399;-85
2024/03/01 11:04:04;;;;;;;;;;;;;;;12.91;88.48;95896.66;107190;1300;22637;-85
2024/03/01 11:06:43;;;;;;;;;;;;;;;12.89;89.45;95893.98;106981;1292;22522;-85
2024/03/01 11:09:14;;;;;;;;;;;;;;;12.87;89.53;95889.59;107011;1298;22548;-85
2024/03/01 11:11:45;;;;;;;;;;;;;;;12.84;89.71;95890.90;107018;1300;22562;-85
2024/03/01 11:14:11;;;;;;;;;;;;;;;12.82;89.15;95891.27;106978;1301;22518;-85
2024/03/01 11:16:38;;;;;;;;;;;;;;;12.80;88.79;95886.27;106968;1301;22515;-84
2024/03/01 11:19:06;;;;;;;;;;;;;;;12.78;88.41;95890.01;107049;1301;22561;-85
2024/03/01 11:21:33;;;;;;;;;;;;;;;12.80;89.07;95885.27;108490;1279;22409;-85
2024/03/01 11:24:02;;;;;;;;;;;;;;;12.82;89.66;95877.46;107927;1282;22554;-85
2024/03/01 11:26:42;;;;;;;;;;;;;;;12.85;89.49;95873.65;107005;1298;25414;-85
2024/03/01 11:29:12;;;;;;;;;;;;;;;12.89;90.46;95866.87;106978;1300;24915;-85
2024/03/01 11:31:39;;;;;;;;;;;;;;;12.92;90.74;95861.30;107099;1295;22556;-85
2024/03/01 11:34:06;;;;;;;;;;;;;;;12.98;90.71;95859.49;107091;1295;22544;-85
2024/03/01 11:36:49;;;;;;;;;;;;;;;13.02;90.02;95861.09;106863;1292;23904;-85
2024/03/01 11:39:35;;;;;;;;;;;;;;;13.06;89.00;95853.05;107087;1300;24687;-85
2024/03/01 11:42:03;;;;;;;;;;;;;;;13.12;88.72;95855.53;107054;1300;25278;-85
2024/03/01 11:44:29;;;;;;;;;;;;;;;13.19;90.05;95858.69;107071;1298;22534;-85
2024/03/01 11:46:55;;;;;;;;;;;;;;;13.22;89.97;95860.25;107071;1300;23823;-85
2024/03/01 11:49:31;;;;;;;;;;;;;;;13.21;90.48;95865.86;107070;1300;23708;-85
2024/03/01 11:52:17;;;;;;;;;;;;;;;13.22;90.78;95862.02;107087;1299;23892;-85
2024/03/01 11:54:43;;;;;;;;;;;;;;;13.21;91.08;95856.99;107081;1300;22690;-85
2024/03/01 11:57:22;;;;;;;;;;;;;;;13.19;90.48;95858.34;107094;1300;24220;-85
2024/03/01 11:59:54;;;;;;;;;;;;;;;13.19;91.57;95855.45;106882;1301;22536;-85
2024/03/01 12:02:23;;;;;;;;;;;;;;;13.19;91.56;95859.90;107173;1300;22518;-85
2024/03/01 12:04:57;;;;;;;;;;;;;;;13.19;91.20;95862.66;106971;1291;25400;-85
2024/03/01 12:07:24;;;;;;;;;;;;;;;13.18;89.07;95860.60;106972;1300;22550;-88
2024/03/01 12:10:01;;;;;;;;;;;;;;;13.16;88.42;95859.74;107154;1294;22522;-89
2024/03/01 12:12:27;;;;;;;;;;;;;;;13.17;89.12;95858.60;106995;1300;22525;-88
2024/03/01 12:14:54;;;;;;;;;;;;;;;13.18;89.47;95861.59;107019;1295;22529;-88
2024/03/01 12:17:23;;;;;;;;;;;;;;;13.20;89.63;95858.69;107128;1281;22636;-88
2024/03/01 12:20:05;;;;;;;;;;;;;;;13.22;89.78;95856.23;107004;1295;22514;-88
2024/03/01 12:22:40;;;;;;;;;;;;;;;13.24;89.81;95854.73;107035;1301;22556;-88
2024/03/01 12:25:06;;;;;;;;;;;;;;;13.27;90.04;95850.84;106945;1299;23160;-88
2024/03/01 12:27:38;;;;;;;;;;;;;;;13.29;89.76;95850.75;106957;1295;24244;-88
2024/03/01 12:30:23;;;;;;;;;;;;;;;13.32;90.85;95854.34;108395;1300;23053;-89
2024/03/01 12:32:59;;;;;;;;;;;;;;;13.35;90.01;95856.51;108374;1295;23134;-88
2024/03/01 12:35:38;;;;;;;;;;;;;;;13.36;88.22;95854.17;107019;1300;22530;-88
2024/03/01 12:38:10;;;;;;;;;;;;;;;13.37;88.31;95857.09;107055;1300;22497;-85
2024/03/01 12:40:55;;;;;;;;;;;;;;;13.41;90.05;95849.76;108206;1292;22567;-89
2024/03/01 12:43:22;;;;;;;;;;;;;;;13.44;89.63;95851.05;108404;1296;22452;-89
2024/03/01 12:46:08;;;;;;;;;;;;;;;13.45;89.23;95848.91;108377;1298;22422;-89
2024/03/01 12:48:51;;;;;;;;;;;;;;;13.48;90.65;95847.20;108386;1297;22443;-89
2024/03/01 12:51:24;;;;;;;;;;;;;;;13.49;90.34;95850.01;108313;1292;22633;-89